createdAt,value
2022-11-30T00:01:15.731Z,6.09
2022-11-30T00:03:42.547Z,6.02
2022-11-30T00:06:12.887Z,5.98
2022-11-30T00:08:39.440Z,6.04
2022-11-30T00:11:15.101Z,6.05
2022-11-30T00:13:42.177Z,6.06
2022-11-30T00:16:11.481Z,6.05
2022-11-30T00:18:38.283Z,5.99
2022-11-30T00:21:08.826Z,5.97
2022-11-30T00:23:37.235Z,5.89
2022-11-30T00:26:06.181Z,5.92
2022-11-30T00:28:33.838Z,5.97
2022-11-30T00:31:02.314Z,5.96
2022-11-30T00:33:29.698Z,6.00
2022-11-30T00:36:01.337Z,6.00
2022-11-30T00:38:28.309Z,6.00
2022-11-30T00:40:54.907Z,5.97
2022-11-30T00:43:21.406Z,5.96
2022-11-30T00:45:48.003Z,5.96
2022-11-30T00:48:14.731Z,5.99
2022-11-30T00:50:41.837Z,5.88
2022-11-30T00:53:08.447Z,5.85
2022-11-30T00:55:34.986Z,5.81
2022-11-30T00:58:01.796Z,5.86
2022-11-30T01:00:29.138Z,5.86
2022-11-30T01:02:57.075Z,5.85
2022-11-30T01:05:23.525Z,5.85
2022-11-30T01:07:50.134Z,5.85
2022-11-30T01:10:16.870Z,5.79
2022-11-30T01:12:43.614Z,5.88
2022-11-30T01:15:10.857Z,6.09
2022-11-30T01:17:37.511Z,5.88
2022-11-30T01:20:05.413Z,5.85
2022-11-30T01:22:32.009Z,5.82
2022-11-30T01:24:58.504Z,5.80
2022-11-30T01:27:25.260Z,5.73
2022-11-30T01:29:51.740Z,5.66
2022-11-30T01:32:18.383Z,5.68
2022-11-30T01:34:45.067Z,5.72
2022-11-30T01:37:11.777Z,5.75
2022-11-30T01:39:38.326Z,5.77
2022-11-30T01:42:06.613Z,5.82
2022-11-30T01:44:33.156Z,5.79
2022-11-30T01:47:09.144Z,5.78
2022-11-30T01:49:38.125Z,5.76
2022-11-30T01:52:10.549Z,5.67
2022-11-30T01:55:03.182Z,5.67
2022-11-30T01:57:51.492Z,5.63
2022-11-30T02:00:18.476Z,5.62
2022-11-30T02:02:58.796Z,5.59
2022-11-30T02:05:26.584Z,5.52
2022-11-30T02:07:54.039Z,5.51
2022-11-30T02:10:41.876Z,5.52
2022-11-30T02:13:36.028Z,5.65
2022-11-30T02:16:33.104Z,5.52
2022-11-30T02:19:18.119Z,5.51
2022-11-30T02:21:54.561Z,5.47
2022-11-30T02:24:32.014Z,5.53
2022-11-30T02:27:10.744Z,5.39
2022-11-30T02:29:58.886Z,5.35
2022-11-30T02:32:33.810Z,5.31
2022-11-30T02:35:02.977Z,5.31
2022-11-30T02:37:31.881Z,5.14
2022-11-30T02:39:58.439Z,5.13
2022-11-30T02:42:24.909Z,5.11
2022-11-30T02:44:53.365Z,5.13
2022-11-30T02:47:37.990Z,5.04
2022-11-30T02:50:08.803Z,5.15
2022-11-30T02:52:36.216Z,5.00
2022-11-30T02:55:06.590Z,4.94
2022-11-30T02:57:33.949Z,4.91
2022-11-30T03:00:04.247Z,4.93
2022-11-30T03:02:30.812Z,4.94
2022-11-30T03:04:57.319Z,4.91
2022-11-30T03:07:24.010Z,4.95
2022-11-30T03:09:50.746Z,4.99
2022-11-30T03:12:17.309Z,5.03
2022-11-30T03:14:43.992Z,4.97
2022-11-30T03:17:10.700Z,4.91
2022-11-30T03:19:37.264Z,4.83
2022-11-30T03:22:03.955Z,4.94
2022-11-30T03:24:30.542Z,5.12
2022-11-30T03:26:57.102Z,5.03
2022-11-30T03:29:23.579Z,4.86
2022-11-30T03:31:50.068Z,5.01
2022-11-30T03:34:16.734Z,4.96
2022-11-30T03:36:43.221Z,4.94
2022-11-30T03:39:09.862Z,4.88
2022-11-30T03:41:36.768Z,4.88
2022-11-30T03:44:03.978Z,4.96
2022-11-30T03:46:30.635Z,4.99
2022-11-30T03:48:57.251Z,5.32
2022-11-30T03:51:23.861Z,5.12
2022-11-30T03:53:50.414Z,5.20
2022-11-30T03:56:16.939Z,5.23
2022-11-30T03:58:43.730Z,5.22
2022-11-30T04:01:13.478Z,5.28
2022-11-30T04:03:40.488Z,5.09
2022-11-30T04:06:08.720Z,5.22
2022-11-30T04:08:35.555Z,5.14
2022-11-30T04:11:03.018Z,5.13
2022-11-30T04:13:30.622Z,5.18
2022-11-30T04:15:57.366Z,5.25
2022-11-30T04:18:25.322Z,5.26
2022-11-30T04:20:53.350Z,5.15
2022-11-30T04:23:21.016Z,5.10
2022-11-30T04:25:48.160Z,5.01
2022-11-30T04:28:15.832Z,5.10
2022-11-30T04:30:43.443Z,5.14
2022-11-30T04:33:10.037Z,5.15
2022-11-30T04:35:41.986Z,5.20
2022-11-30T04:38:08.536Z,5.07
2022-11-30T04:40:38.678Z,5.08
2022-11-30T04:43:05.186Z,5.05
2022-11-30T04:45:35.348Z,5.08
2022-11-30T04:48:03.449Z,5.13
2022-11-30T04:50:30.068Z,5.17
2022-11-30T04:52:56.633Z,5.03
2022-11-30T04:55:23.546Z,4.95
2022-11-30T04:57:50.067Z,5.00
2022-11-30T05:00:18.368Z,5.01
2022-11-30T05:02:52.121Z,4.92
2022-11-30T05:05:19.156Z,4.92
2022-11-30T05:07:49.801Z,4.90
2022-11-30T05:10:19.063Z,4.83
2022-11-30T05:12:45.626Z,4.86
2022-11-30T05:15:12.209Z,4.75
2022-11-30T05:17:39.359Z,4.77
2022-11-30T05:20:06.679Z,4.78
2022-11-30T05:22:35.141Z,4.74
2022-11-30T05:25:01.897Z,4.71
2022-11-30T05:27:28.435Z,4.78
2022-11-30T05:29:54.893Z,4.80
2022-11-30T05:32:21.439Z,4.70
2022-11-30T05:34:51.255Z,4.79
2022-11-30T05:37:19.334Z,4.77
2022-11-30T05:39:45.824Z,4.85
2022-11-30T05:42:12.322Z,4.89
2022-11-30T05:44:38.826Z,4.85
2022-11-30T05:47:05.488Z,4.80
2022-11-30T05:49:32.201Z,4.83
2022-11-30T05:51:58.693Z,4.81
2022-11-30T05:54:25.207Z,4.77
2022-11-30T05:56:55.098Z,4.78
2022-11-30T05:59:22.353Z,4.83
2022-11-30T06:01:51.179Z,4.82
2022-11-30T06:04:17.862Z,4.84
2022-11-30T06:06:45.869Z,4.84
2022-11-30T06:09:12.445Z,4.88
2022-11-30T06:11:39.133Z,4.85
2022-11-30T06:14:05.687Z,4.82
2022-11-30T06:16:32.381Z,4.84
2022-11-30T06:18:58.902Z,4.82
2022-11-30T06:21:25.432Z,4.81
2022-11-30T06:23:52.679Z,4.80
2022-11-30T06:26:19.445Z,4.80
2022-11-30T06:28:48.435Z,4.81
2022-11-30T06:31:16.121Z,4.78
2022-11-30T06:33:42.883Z,4.79
2022-11-30T06:36:10.039Z,4.80
2022-11-30T06:38:36.664Z,4.77
2022-11-30T06:41:08.562Z,4.72
2022-11-30T06:43:38.977Z,4.74
2022-11-30T06:46:06.909Z,4.78
2022-11-30T06:48:34.686Z,4.90
2022-11-30T06:51:01.561Z,4.77
2022-11-30T06:53:28.048Z,4.76
2022-11-30T06:55:54.581Z,4.74
2022-11-30T06:58:21.049Z,4.77
2022-11-30T07:00:47.626Z,4.84
2022-11-30T07:03:14.211Z,4.85
2022-11-30T07:05:45.903Z,4.96
2022-11-30T07:08:14.675Z,4.91
2022-11-30T07:10:45.767Z,4.91
2022-11-30T07:13:14.326Z,4.82
2022-11-30T07:15:41.604Z,4.87
2022-11-30T07:18:08.953Z,4.94
2022-11-30T07:20:36.423Z,4.95
2022-11-30T07:23:22.010Z,4.94
2022-11-30T07:26:09.389Z,4.93
2022-11-30T07:28:38.765Z,5.03
2022-11-30T07:31:37.360Z,5.08
2022-11-30T07:34:07.128Z,5.09
2022-11-30T07:36:34.666Z,5.08
2022-11-30T07:39:01.185Z,5.08
2022-11-30T07:41:27.725Z,5.15
2022-11-30T07:43:54.197Z,5.17
2022-11-30T07:46:20.990Z,5.17
2022-11-30T07:48:47.599Z,5.22
2022-11-30T07:51:20.675Z,5.26
2022-11-30T07:53:47.851Z,5.27
2022-11-30T07:56:16.455Z,5.22
2022-11-30T07:58:43.303Z,5.25
2022-11-30T08:01:13.726Z,5.28
2022-11-30T08:03:40.574Z,5.34
2022-11-30T08:06:10.157Z,5.35
2022-11-30T08:08:39.829Z,5.38
2022-11-30T08:11:08.272Z,5.41
2022-11-30T08:13:34.768Z,5.49
2022-11-30T08:16:07.036Z,5.56
2022-11-30T08:18:34.231Z,5.59
2022-11-30T08:21:02.807Z,5.59
2022-11-30T08:23:34.244Z,5.62
2022-11-30T08:26:06.277Z,5.62
2022-11-30T08:28:35.927Z,5.64
2022-11-30T08:31:04.784Z,5.63
2022-11-30T08:33:31.770Z,5.69
2022-11-30T08:36:18.399Z,5.68
2022-11-30T08:38:45.781Z,5.75
2022-11-30T08:41:15.496Z,5.78
2022-11-30T08:43:42.749Z,5.81
2022-11-30T08:46:35.154Z,5.83
2022-11-30T08:49:13.046Z,5.87
2022-11-30T08:52:15.538Z,5.86
2022-11-30T08:54:31.128Z,5.92
2022-11-30T08:56:59.035Z,5.87
2022-11-30T08:59:25.490Z,5.91
2022-11-30T09:01:51.841Z,5.93
2022-11-30T09:04:18.250Z,6.03
2022-11-30T09:06:44.627Z,6.09
2022-11-30T09:09:11.035Z,6.08
2022-11-30T09:11:37.468Z,6.07
2022-11-30T09:14:04.888Z,6.09
2022-11-30T09:16:31.829Z,6.13
2022-11-30T09:18:58.354Z,6.18
2022-11-30T09:21:25.612Z,6.15
2022-11-30T09:23:52.692Z,6.18
2022-11-30T09:26:21.440Z,6.22
2022-11-30T09:28:48.385Z,6.18
2022-11-30T09:31:17.976Z,6.16
2022-11-30T09:33:45.515Z,6.17
2022-11-30T09:36:14.924Z,6.20
2022-11-30T09:38:44.809Z,6.22
2022-11-30T09:41:43.157Z,6.28
2022-11-30T09:44:38.749Z,6.27
2022-11-30T09:47:08.370Z,6.25
2022-11-30T09:49:37.550Z,6.22
2022-11-30T09:52:09.998Z,6.20
2022-11-30T09:54:39.717Z,6.25
2022-11-30T09:57:29.780Z,6.13
2022-11-30T10:00:01.464Z,6.18
2022-11-30T10:02:33.793Z,6.30
2022-11-30T10:05:01.296Z,6.23
2022-11-30T10:07:42.851Z,6.23
2022-11-30T10:10:32.391Z,6.27
2022-11-30T10:13:02.475Z,6.22
2022-11-30T10:15:40.674Z,6.20
2022-11-30T10:18:55.268Z,6.26
2022-11-30T10:21:43.622Z,6.26
2022-11-30T10:24:35.720Z,6.19
2022-11-30T10:27:15.920Z,6.18
2022-11-30T10:29:43.958Z,6.23
2022-11-30T10:32:35.396Z,6.27
2022-11-30T10:35:31.505Z,6.24
2022-11-30T10:38:00.058Z,6.25
2022-11-30T10:41:01.657Z,6.21
2022-11-30T10:43:38.188Z,6.20
2022-11-30T10:46:05.313Z,6.19
2022-11-30T10:48:43.505Z,6.18
2022-11-30T10:51:12.235Z,6.19
2022-11-30T10:53:38.621Z,6.28
2022-11-30T10:56:09.678Z,6.27
2022-11-30T10:58:53.600Z,6.27
2022-11-30T11:01:40.518Z,6.31
2022-11-30T11:04:13.366Z,6.34
2022-11-30T11:07:09.896Z,6.24
2022-11-30T11:09:40.044Z,6.30
2022-11-30T11:12:15.984Z,6.32
2022-11-30T11:14:42.386Z,6.25
2022-11-30T11:17:17.697Z,6.29
2022-11-30T11:19:46.416Z,6.30
2022-11-30T11:22:12.867Z,6.28
2022-11-30T11:24:39.648Z,6.31
2022-11-30T11:27:06.187Z,6.30
2022-11-30T11:29:36.132Z,6.40
2022-11-30T11:32:07.127Z,6.32
2022-11-30T11:34:36.145Z,6.28
2022-11-30T11:37:28.884Z,6.32
2022-11-30T11:40:22.460Z,6.35
2022-11-30T11:42:52.069Z,6.32
2022-11-30T11:45:26.127Z,6.24
2022-11-30T11:48:01.478Z,6.23
2022-11-30T11:51:05.692Z,6.29
2022-11-30T11:53:24.998Z,6.34
2022-11-30T11:55:56.126Z,6.27
2022-11-30T11:58:35.371Z,6.25
2022-11-30T12:01:37.958Z,6.14
2022-11-30T12:03:58.834Z,6.28
2022-11-30T12:06:26.695Z,6.21
2022-11-30T12:09:13.679Z,6.24
2022-11-30T12:11:46.956Z,6.32
2022-11-30T12:14:16.594Z,6.30
2022-11-30T12:17:08.535Z,6.29
2022-11-30T12:19:56.991Z,6.30
2022-11-30T12:22:41.819Z,6.30
2022-11-30T12:25:18.719Z,6.27
2022-11-30T12:28:22.956Z,6.29
2022-11-30T12:31:12.931Z,6.35
2022-11-30T12:34:04.316Z,6.28
2022-11-30T12:36:45.958Z,6.24
2022-11-30T12:39:32.633Z,6.29
2022-11-30T12:42:26.970Z,6.25
2022-11-30T12:44:56.492Z,6.24
2022-11-30T12:47:47.244Z,6.27
2022-11-30T12:50:25.518Z,6.30
2022-11-30T12:53:18.299Z,6.19
2022-11-30T12:56:02.577Z,6.26
2022-11-30T12:58:43.015Z,6.30
2022-11-30T13:01:21.600Z,6.28
2022-11-30T13:03:59.013Z,6.20
2022-11-30T13:06:34.461Z,6.21
2022-11-30T13:09:15.802Z,6.20
2022-11-30T13:11:46.971Z,6.23
2022-11-30T13:14:22.636Z,6.26
2022-11-30T13:16:54.952Z,6.24
2022-11-30T13:19:50.693Z,6.29
2022-11-30T13:22:43.882Z,6.27
2022-11-30T13:25:59.806Z,6.26
2022-11-30T13:28:36.090Z,6.31
2022-11-30T13:31:22.129Z,6.21
2022-11-30T13:33:57.817Z,6.25
2022-11-30T13:36:30.063Z,6.22
2022-11-30T13:39:22.981Z,6.23
2022-11-30T13:42:14.496Z,6.23
2022-11-30T13:44:42.385Z,6.25
2022-11-30T13:47:27.244Z,6.19
2022-11-30T13:50:05.394Z,6.25
2022-11-30T13:53:00.519Z,6.26
2022-11-30T13:55:36.234Z,6.20
2022-11-30T13:58:07.385Z,6.16
2022-11-30T14:00:33.763Z,6.21
2022-11-30T14:06:43.883Z,6.22
2022-11-30T14:09:37.365Z,6.16
2022-11-30T14:12:32.660Z,6.22
2022-11-30T14:15:00.940Z,6.19
2022-11-30T14:17:29.625Z,6.20
2022-11-30T14:20:07.403Z,6.21
2022-11-30T14:22:34.604Z,6.21
2022-11-30T14:25:03.067Z,6.21
2022-11-30T14:27:30.618Z,6.16
2022-11-30T14:30:02.620Z,6.12
2022-11-30T14:32:43.263Z,6.14
2022-11-30T14:35:19.412Z,6.15
2022-11-30T14:37:51.132Z,6.10
2022-11-30T14:40:20.367Z,6.12
2022-11-30T14:42:50.299Z,6.07
2022-11-30T14:45:26.469Z,6.07
2022-11-30T14:48:04.727Z,6.06
2022-11-30T14:50:32.044Z,6.06
2022-11-30T14:53:08.876Z,6.12
2022-11-30T14:55:48.642Z,6.12
2022-11-30T14:58:24.033Z,6.03
2022-11-30T15:00:51.210Z,6.06
2022-11-30T15:03:28.295Z,6.02
2022-11-30T15:06:00.736Z,6.07
2022-11-30T15:08:34.986Z,6.06
2022-11-30T15:11:07.187Z,6.13
2022-11-30T15:13:37.431Z,6.07
2022-11-30T15:16:15.713Z,6.09
2022-11-30T15:18:42.138Z,6.00
2022-11-30T15:21:17.264Z,6.03
2022-11-30T15:23:50.663Z,6.05
2022-11-30T15:26:27.475Z,6.04
2022-11-30T15:29:22.412Z,6.02
2022-11-30T15:31:51.639Z,6.00
2022-11-30T15:34:21.342Z,5.97
2022-11-30T15:36:48.032Z,5.92
2022-11-30T15:39:26.326Z,6.01
2022-11-30T15:41:58.508Z,5.97
2022-11-30T15:44:37.212Z,6.04
2022-11-30T15:47:06.685Z,6.00
2022-11-30T15:49:36.311Z,6.00
2022-11-30T15:52:16.215Z,5.92
2022-11-30T15:55:03.592Z,5.95
2022-11-30T15:58:00.399Z,6.02
2022-11-30T16:00:27.171Z,5.94
2022-11-30T16:03:13.338Z,5.96
2022-11-30T16:05:40.273Z,5.99
2022-11-30T16:08:16.575Z,5.86
2022-11-30T16:10:43.897Z,5.94
2022-11-30T16:13:15.342Z,5.99
2022-11-30T16:15:47.538Z,5.99
2022-11-30T16:18:28.253Z,5.95
2022-11-30T16:20:58.299Z,5.99
2022-11-30T16:23:25.981Z,5.91
2022-11-30T16:25:52.908Z,5.90
2022-11-30T16:28:20.281Z,5.85
2022-11-30T16:30:47.586Z,5.86
2022-11-30T16:33:15.126Z,6.02
2022-11-30T16:35:54.611Z,6.10
2022-11-30T16:38:21.408Z,5.98
2022-11-30T16:40:47.980Z,5.87
2022-11-30T16:43:14.656Z,5.83
2022-11-30T16:45:43.961Z,5.86
2022-11-30T16:48:10.393Z,5.88
2022-11-30T16:50:37.200Z,5.81
2022-11-30T16:53:05.166Z,5.84
2022-11-30T16:55:37.660Z,5.84
2022-11-30T16:58:04.683Z,5.81
2022-11-30T17:00:31.773Z,5.70
2022-11-30T17:03:02.516Z,5.84
2022-11-30T17:05:28.933Z,5.73
2022-11-30T17:07:55.467Z,5.76
2022-11-30T17:10:21.982Z,5.77
2022-11-30T17:12:48.478Z,5.88
2022-11-30T17:15:20.497Z,5.85
2022-11-30T17:17:47.172Z,5.83
2022-11-30T17:20:15.293Z,5.70
2022-11-30T17:22:42.366Z,5.70
2022-11-30T17:25:13.760Z,5.66
2022-11-30T17:27:40.168Z,5.74
2022-11-30T17:30:07.295Z,5.92
2022-11-30T17:32:33.911Z,5.99
2022-11-30T17:35:00.309Z,5.89
2022-11-30T17:37:26.808Z,5.90
2022-11-30T17:39:53.174Z,5.86
2022-11-30T17:42:19.620Z,5.74
2022-11-30T17:44:46.915Z,5.75
2022-11-30T17:47:13.678Z,5.69
2022-11-30T17:49:40.423Z,5.74
2022-11-30T17:52:06.993Z,5.51
2022-11-30T17:54:33.420Z,5.50
2022-11-30T17:57:00.078Z,5.56
2022-11-30T17:59:26.704Z,5.69
2022-11-30T18:01:53.197Z,5.75
2022-11-30T18:04:19.683Z,5.62
2022-11-30T18:06:46.147Z,5.63
2022-11-30T18:09:12.607Z,5.79
2022-11-30T18:11:39.181Z,5.72
2022-11-30T18:14:05.778Z,5.69
2022-11-30T18:16:36.431Z,5.52
2022-11-30T18:19:08.290Z,5.45
2022-11-30T18:21:34.672Z,5.39
2022-11-30T18:24:01.050Z,5.32
2022-11-30T18:26:27.737Z,5.48
2022-11-30T18:28:58.713Z,5.39
2022-11-30T18:31:26.447Z,5.41
2022-11-30T18:34:00.199Z,5.42
2022-11-30T18:36:27.603Z,5.38
2022-11-30T18:38:54.656Z,5.34
2022-11-30T18:41:22.153Z,5.45
2022-11-30T18:43:48.544Z,5.43
2022-11-30T18:46:15.032Z,5.43
2022-11-30T18:48:41.903Z,5.43
2022-11-30T18:51:10.251Z,5.46
2022-11-30T18:53:36.746Z,5.52
2022-11-30T18:56:15.033Z,5.64
2022-11-30T18:58:42.413Z,5.56
2022-11-30T19:01:12.092Z,5.47
2022-11-30T19:03:38.545Z,5.53
2022-11-30T19:06:06.693Z,5.58
2022-11-30T19:08:33.941Z,5.59
2022-11-30T19:11:05.587Z,5.66
2022-11-30T19:13:32.812Z,5.59
2022-11-30T19:16:05.609Z,5.65
2022-11-30T19:18:32.489Z,5.57
2022-11-30T19:20:58.917Z,5.50
2022-11-30T19:23:25.689Z,5.53
2022-11-30T19:25:52.088Z,5.47
2022-11-30T19:28:19.026Z,5.65
2022-11-30T19:30:45.411Z,5.75
2022-11-30T19:33:12.842Z,5.71
2022-11-30T19:35:39.438Z,5.71
2022-11-30T19:38:05.807Z,5.74
2022-11-30T19:40:32.863Z,5.78
2022-11-30T19:42:59.391Z,5.76
2022-11-30T19:45:25.769Z,5.70
2022-11-30T19:47:52.159Z,5.69
2022-11-30T19:50:18.604Z,5.83
2022-11-30T19:52:45.209Z,5.74
2022-11-30T19:55:11.580Z,5.69
2022-11-30T19:57:38.015Z,5.66
2022-11-30T20:00:06.550Z,5.63
2022-11-30T20:02:33.842Z,5.63
2022-11-30T20:05:00.245Z,5.57
2022-11-30T20:07:27.770Z,5.60
2022-11-30T20:09:54.273Z,5.60
2022-11-30T20:12:20.727Z,5.60
2022-11-30T20:14:50.241Z,5.62
2022-11-30T20:17:16.859Z,5.64
2022-11-30T20:19:43.219Z,5.70
2022-11-30T20:22:09.643Z,5.65
2022-11-30T20:24:36.825Z,5.65
2022-11-30T20:27:05.858Z,5.62
2022-11-30T20:29:32.239Z,5.66
2022-11-30T20:31:58.676Z,5.64
2022-11-30T20:34:28.487Z,5.57
2022-11-30T20:36:57.614Z,5.45
2022-11-30T20:39:24.069Z,5.54
2022-11-30T20:41:50.501Z,5.58
2022-11-30T20:44:16.988Z,5.51
2022-11-30T20:46:43.823Z,5.47
2022-11-30T20:49:17.689Z,5.51
2022-11-30T20:51:45.007Z,5.43
2022-11-30T20:54:12.531Z,5.46
2022-11-30T20:56:39.849Z,5.44
2022-11-30T20:59:14.836Z,5.55
2022-11-30T21:01:43.232Z,5.52
2022-11-30T21:04:09.914Z,5.54
2022-11-30T21:06:36.428Z,5.46
2022-11-30T21:09:03.276Z,5.32
2022-11-30T21:11:30.393Z,5.44
2022-11-30T21:13:58.169Z,5.38
2022-11-30T21:16:28.481Z,5.30
2022-11-30T21:18:56.724Z,5.29
2022-11-30T21:21:24.796Z,5.28
2022-11-30T21:23:51.916Z,5.20
2022-11-30T21:26:19.591Z,5.31
2022-11-30T21:28:48.248Z,5.17
2022-11-30T21:31:15.493Z,5.15
2022-11-30T21:33:45.861Z,5.20
2022-11-30T21:36:17.154Z,5.07
2022-11-30T21:38:44.132Z,5.15
2022-11-30T21:41:14.317Z,5.25
2022-11-30T21:43:41.729Z,5.23
2022-11-30T21:46:10.279Z,5.12
2022-11-30T21:48:37.980Z,5.15
2022-11-30T21:51:12.703Z,5.23
2022-11-30T21:53:45.522Z,5.15
2022-11-30T21:56:14.796Z,5.11
2022-11-30T21:58:43.676Z,5.08
2022-11-30T22:01:22.731Z,4.99
2022-11-30T22:03:49.325Z,4.99
2022-11-30T22:06:18.164Z,5.05
2022-11-30T22:08:45.436Z,5.01
2022-11-30T22:11:20.543Z,5.13
2022-11-30T22:13:54.183Z,5.08
2022-11-30T22:16:22.871Z,5.00
2022-11-30T22:18:52.850Z,4.95
2022-11-30T22:21:22.175Z,5.07
2022-11-30T22:23:53.638Z,5.03
2022-11-30T22:26:26.242Z,4.91
2022-11-30T22:28:56.860Z,4.99
2022-11-30T22:31:26.033Z,4.86
2022-11-30T22:33:52.802Z,5.15
2022-11-30T22:36:25.394Z,5.18
2022-11-30T22:38:57.338Z,5.07
2022-11-30T22:41:24.801Z,5.11
2022-11-30T22:43:51.614Z,5.14
2022-11-30T22:46:37.613Z,4.98
2022-11-30T22:49:06.737Z,5.09
2022-11-30T22:51:35.805Z,5.17
2022-11-30T22:54:02.401Z,5.04
2022-11-30T22:56:31.241Z,4.97
2022-11-30T22:58:59.899Z,4.93
2022-11-30T23:01:27.800Z,4.86
2022-11-30T23:03:56.421Z,4.79
2022-11-30T23:06:24.232Z,4.74
2022-11-30T23:08:51.876Z,4.74
2022-11-30T23:11:21.358Z,4.57
2022-11-30T23:13:48.149Z,4.66
2022-11-30T23:16:16.490Z,4.68
2022-11-30T23:18:48.479Z,4.55
2022-11-30T23:21:20.802Z,4.54
2022-11-30T23:23:47.583Z,4.59
2022-11-30T23:26:16.464Z,4.59
2022-11-30T23:28:44.767Z,4.59
2022-11-30T23:31:34.173Z,4.67
2022-11-30T23:34:00.301Z,4.62
2022-11-30T23:36:26.844Z,4.80
2022-11-30T23:38:58.978Z,4.69
2022-11-30T23:41:26.357Z,4.48
2022-11-30T23:43:53.414Z,4.55
2022-11-30T23:46:20.417Z,4.46
2022-11-30T23:48:47.092Z,4.48
2022-11-30T23:51:13.570Z,4.49
2022-11-30T23:53:40.006Z,4.63
2022-11-30T23:56:09.583Z,4.55
2022-11-30T23:58:36.225Z,4.54
